Time;durP1;ratioP1;P1;durP2;ratioP2;P2;SDS_P1;SDS_P2;PMS_P1;PMS_P2;Temp;Humidity;BMP_temperature;BMP_pressure;BME280_temperature;BME280_humidity;BME280_pressure;Samples;Min_cycle;Max_cycle;Signal;HPM_P1;HPM_P2
2022/01/11 00:01:26;;;;;;;3.88;2.30;;;;;;;;;;5036410;28;20074;-48
2022/01/11 00:03:53;;;;;;;3.10;2.38;;;;;;;;;;5060895;28;20025;-48
2022/01/11 00:08:45;;;;;;;3.30;2.47;;;;;;;;;;5059610;28;20120;-46
2022/01/11 00:11:12;;;;;;;3.67;2.47;;;;;;;;;;5061310;28;20414;-46
2022/01/11 00:13:39;;;;;;;4.00;2.72;;;;;;;;;;5059299;28;20021;-45
2022/01/11 00:16:06;;;;;;;5.80;2.63;;;;;;;;;;5061746;28;20376;-46
2022/01/11 00:18:32;;;;;;;4.93;2.83;;;;;;;;;;5059388;28;20020;-48
2022/01/11 00:20:58;;;;;;;3.83;2.70;;;;;;;;;;5061478;28;20025;-45
2022/01/11 00:25:51;;;;;;;5.60;2.72;;;;;;;;;;5059845;28;20029;-46
2022/01/11 00:28:18;;;;;;;3.88;2.60;;;;;;;;;;5060008;28;20020;-46
2022/01/11 00:30:46;;;;;;;4.25;2.88;;;;;;;;;;5062023;28;20029;-45
2022/01/11 00:33:16;;;;;;;4.20;2.65;;;;;;;;;;5059423;28;20396;-46
2022/01/11 00:35:45;;;;;;;3.92;2.30;;;;;;;;;;5059939;28;20021;-47
2022/01/11 00:38:15;;;;;;;4.57;2.78;;;;;;;;;;5056878;28;20053;-46
2022/01/11 00:40:45;;;;;;;3.47;2.80;;;;;;;;;;5060138;28;20013;-46
2022/01/11 00:43:11;;;;;;;3.88;2.63;;;;;;;;;;5060696;28;20024;-52
2022/01/11 00:45:37;;;;;;;4.82;3.08;;;;;;;;;;5058843;28;20094;-45
2022/01/11 00:48:04;;;;;;;3.40;2.22;;;;;;;;;;5061289;28;20033;-47
2022/01/11 00:50:32;;;;;;;4.45;3.20;;;;;;;;;;5057598;28;20021;-46
2022/01/11 00:52:58;;;;;;;4.45;2.60;;;;;;;;;;5068441;28;20048;-45
2022/01/11 00:55:24;;;;;;;4.68;2.67;;;;;;;;;;5056208;28;20399;-45
2022/01/11 00:57:50;;;;;;;3.20;2.45;;;;;;;;;;5062198;28;20531;-46
2022/01/11 01:00:16;;;;;;;3.85;2.80;;;;;;;;;;5064435;28;20028;-45
2022/01/11 01:02:43;;;;;;;4.57;2.85;;;;;;;;;;5055802;28;20024;-46
2022/01/11 01:05:09;;;;;;;5.07;2.78;;;;;;;;;;5068268;28;20025;-52
2022/01/11 01:07:35;;;;;;;4.95;3.00;;;;;;;;;;5058042;28;20055;-45
2022/01/11 01:10:05;;;;;;;4.32;2.90;;;;;;;;;;5061387;28;20083;-45
2022/01/11 01:12:32;;;;;;;5.15;2.70;;;;;;;;;;5065899;28;20021;-46
2022/01/11 01:14:58;;;;;;;4.38;2.58;;;;;;;;;;5055014;28;20104;-46
2022/01/11 01:17:24;;;;;;;4.20;2.55;;;;;;;;;;5065969;28;20032;-45
2022/01/11 01:19:50;;;;;;;6.03;2.88;;;;;;;;;;5060180;28;20024;-49
2022/01/11 01:22:16;;;;;;;4.03;2.83;;;;;;;;;;5057938;28;20052;-45
2022/01/11 01:24:42;;;;;;;5.53;3.13;;;;;;;;;;5051886;28;20462;-49
2022/01/11 01:27:08;;;;;;;4.57;2.65;;;;;;;;;;5067304;28;20032;-52
2022/01/11 01:29:34;;;;;;;5.65;3.13;;;;;;;;;;5058561;28;20029;-48
2022/01/11 01:32:01;;;;;;;3.67;2.78;;;;;;;;;;5060593;28;20087;-49
2022/01/11 01:34:27;;;;;;;4.88;2.55;;;;;;;;;;5064884;28;20023;-47
2022/01/11 01:36:53;;;;;;;3.75;2.45;;;;;;;;;;5054132;28;20032;-46
2022/01/11 01:39:19;;;;;;;5.00;2.72;;;;;;;;;;5066677;28;20374;-46
2022/01/11 01:41:46;;;;;;;6.53;2.88;;;;;;;;;;5063242;28;20025;-47
2022/01/11 01:44:13;;;;;;;6.85;3.08;;;;;;;;;;5062579;28;20093;-49
2022/01/11 01:46:39;;;;;;;3.85;2.83;;;;;;;;;;5055677;28;20036;-46
2022/01/11 01:49:06;;;;;;;5.28;3.17;;;;;;;;;;5067664;28;20093;-46
2022/01/11 01:51:32;;;;;;;4.75;2.75;;;;;;;;;;5057237;28;20066;-46
2022/01/11 01:53:59;;;;;;;5.15;2.80;;;;;;;;;;5061482;28;20493;-46
2022/01/11 01:56:26;;;;;;;4.03;2.45;;;;;;;;;;5064626;28;20029;-50
2022/01/11 01:58:52;;;;;;;4.13;2.97;;;;;;;;;;5054106;28;20113;-47
2022/01/11 02:01:18;;;;;;;3.60;2.42;;;;;;;;;;5066948;28;20099;-46
2022/01/11 02:03:45;;;;;;;4.50;2.95;;;;;;;;;;5059980;28;20017;-46
2022/01/11 02:06:13;;;;;;;4.20;2.60;;;;;;;;;;5058757;28;20104;-46
2022/01/11 02:08:39;;;;;;;4.03;2.70;;;;;;;;;;5066266;28;20039;-45
2022/01/11 02:11:07;;;;;;;5.30;2.85;;;;;;;;;;5035974;28;20040;-46
2022/01/11 02:13:33;;;;;;;4.20;2.47;;;;;;;;;;5063836;28;20017;-46
2022/01/11 02:15:59;;;;;;;4.90;2.88;;;;;;;;;;5043382;28;20024;-45
2022/01/11 02:18:26;;;;;;;5.43;3.05;;;;;;;;;;5057049;28;20040;-46
2022/01/11 02:20:55;;;;;;;3.95;2.70;;;;;;;;;;5067465;28;20452;-45
2022/01/11 02:23:22;;;;;;;4.63;3.03;;;;;;;;;;5051201;28;20024;-45
2022/01/11 02:25:48;;;;;;;4.15;2.70;;;;;;;;;;5059055;28;20474;-49
2022/01/11 02:28:16;;;;;;;3.88;2.85;;;;;;;;;;5058115;28;20382;-45
2022/01/11 02:30:42;;;;;;;4.93;3.45;;;;;;;;;;5066971;28;20029;-47
2022/01/11 02:33:19;;;;;;;5.60;3.13;;;;;;;;;;5035789;28;20028;-52
2022/01/11 02:35:52;;;;;;;3.72;2.90;;;;;;;;;;5062564;28;20486;-46
2022/01/11 02:38:18;;;;;;;3.90;2.65;;;;;;;;;;5062929;28;20375;-46
2022/01/11 02:40:45;;;;;;;4.72;2.75;;;;;;;;;;5054334;28;20028;-46
2022/01/11 02:43:11;;;;;;;4.63;2.75;;;;;;;;;;5054545;28;20489;-52
2022/01/11 02:45:37;;;;;;;5.68;3.15;;;;;;;;;;5067292;28;20017;-47
2022/01/11 02:48:03;;;;;;;7.63;3.85;;;;;;;;;;5064573;28;20031;-45
2022/01/11 02:50:29;;;;;;;5.32;3.17;;;;;;;;;;5073113;28;20107;-46
2022/01/11 02:52:55;;;;;;;5.20;3.22;;;;;;;;;;5057765;28;20059;-45
2022/01/11 02:55:21;;;;;;;4.30;3.10;;;;;;;;;;5050759;28;20056;-46
2022/01/11 02:57:47;;;;;;;5.95;3.58;;;;;;;;;;5062336;28;20054;-46
2022/01/11 03:00:15;;;;;;;5.95;3.35;;;;;;;;;;5061263;28;20112;-46
2022/01/11 03:02:41;;;;;;;3.83;2.55;;;;;;;;;;5070156;28;20025;-45
2022/01/11 03:05:08;;;;;;;4.70;3.35;;;;;;;;;;5057408;28;20093;-45
2022/01/11 03:07:34;;;;;;;5.47;3.65;;;;;;;;;;5067331;28;20048;-45
2022/01/11 03:10:07;;;;;;;4.28;2.67;;;;;;;;;;5054301;28;20029;-45
2022/01/11 03:12:33;;;;;;;3.95;2.72;;;;;;;;;;5068101;28;20016;-47
2022/01/11 03:14:59;;;;;;;4.22;2.60;;;;;;;;;;5057506;28;20067;-46
2022/01/11 03:17:26;;;;;;;4.97;3.33;;;;;;;;;;5067501;28;20024;-46
2022/01/11 03:19:53;;;;;;;3.78;3.08;;;;;;;;;;5061886;28;20078;-46
2022/01/11 03:22:19;;;;;;;4.00;2.80;;;;;;;;;;5060603;28;20070;-48
2022/01/11 03:24:45;;;;;;;4.88;2.90;;;;;;;;;;5069276;28;20032;-46
2022/01/11 03:27:11;;;;;;;5.03;3.50;;;;;;;;;;5056324;28;20486;-51
2022/01/11 03:29:40;;;;;;;6.68;3.38;;;;;;;;;;5067011;28;20075;-45
2022/01/11 03:32:07;;;;;;;5.35;2.70;;;;;;;;;;5054872;28;20025;-45
2022/01/11 03:34:33;;;;;;;4.07;2.78;;;;;;;;;;5067833;28;20024;-46
2022/01/11 03:36:59;;;;;;;3.25;2.63;;;;;;;;;;5055823;28;20049;-46
2022/01/11 03:39:28;;;;;;;3.83;2.83;;;;;;;;;;5067327;28;20535;-46
2022/01/11 03:41:54;;;;;;;5.63;2.90;;;;;;;;;;5063280;28;20388;-45
2022/01/11 03:44:20;;;;;;;4.60;2.70;;;;;;;;;;5042338;28;20112;-46
2022/01/11 03:46:46;;;;;;;4.60;2.85;;;;;;;;;;5070317;28;20099;-46
2022/01/11 03:49:12;;;;;;;4.35;2.83;;;;;;;;;;5056934;28;20100;-46
2022/01/11 03:51:39;;;;;;;4.10;2.60;;;;;;;;;;5066472;28;20025;-46
2022/01/11 03:54:13;;;;;;;4.88;3.13;;;;;;;;;;5064340;28;20081;-46
2022/01/11 03:56:39;;;;;;;4.30;2.50;;;;;;;;;;5057828;28;20478;-46
2022/01/11 03:59:06;;;;;;;3.65;2.88;;;;;;;;;;5070229;28;21102;-46
2022/01/11 04:01:36;;;;;;;5.32;2.90;;;;;;;;;;5059469;28;20016;-46
2022/01/11 04:04:03;;;;;;;5.43;2.88;;;;;;;;;;5062892;28;20100;-46
2022/01/11 04:06:29;;;;;;;5.38;3.00;;;;;;;;;;5067310;28;20382;-45
2022/01/11 04:08:55;;;;;;;6.57;3.20;;;;;;;;;;5056683;28;20029;-46
2022/01/11 04:11:21;;;;;;;5.25;2.90;;;;;;;;;;5067773;28;20486;-45
2022/01/11 04:13:47;;;;;;;3.40;2.75;;;;;;;;;;5061897;28;20017;-45
2022/01/11 04:16:14;;;;;;;4.63;3.00;;;;;;;;;;5060512;28;20032;-45
2022/01/11 04:18:40;;;;;;;4.90;2.90;;;;;;;;;;5069044;28;20054;-45
2022/01/11 04:21:06;;;;;;;4.57;2.50;;;;;;;;;;5056585;28;20111;-45
2022/01/11 04:23:34;;;;;;;4.00;2.95;;;;;;;;;;5066071;28;20095;-45
2022/01/11 04:26:00;;;;;;;3.80;2.90;;;;;;;;;;5063131;28;20095;-45
2022/01/11 04:28:27;;;;;;;4.22;2.40;;;;;;;;;;5058405;28;20083;-45
2022/01/11 04:30:57;;;;;;;5.93;3.78;;;;;;;;;;5069553;28;20416;-45
2022/01/11 04:33:24;;;;;;;4.35;2.83;;;;;;;;;;5057700;28;20020;-45
2022/01/11 04:35:50;;;;;;;2.85;2.40;;;;;;;;;;5064222;28;20061;-46
2022/01/11 04:38:20;;;;;;;4.38;2.58;;;;;;;;;;5064389;28;20121;-46
2022/01/11 04:40:46;;;;;;;5.32;3.30;;;;;;;;;;5056063;28;20511;-46
2022/01/11 04:43:12;;;;;;;3.97;3.00;;;;;;;;;;5068519;28;20013;-45
2022/01/11 04:45:38;;;;;;;3.97;2.97;;;;;;;;;;5059790;28;20017;-45
2022/01/11 04:48:05;;;;;;;4.57;3.40;;;;;;;;;;5061549;28;20466;-45
2022/01/11 04:50:31;;;;;;;4.18;3.08;;;;;;;;;;5066646;28;20445;-46
2022/01/11 04:52:57;;;;;;;4.53;3.17;;;;;;;;;;5055905;28;20051;-45
2022/01/11 04:55:23;;;;;;;4.88;2.72;;;;;;;;;;5066766;28;20013;-46
2022/01/11 04:57:49;;;;;;;4.43;2.97;;;;;;;;;;5061009;28;20029;-46
2022/01/11 05:00:16;;;;;;;4.28;3.13;;;;;;;;;;5059208;28;20065;-45
2022/01/11 05:02:43;;;;;;;4.57;2.97;;;;;;;;;;5068566;28;20036;-48
2022/01/11 05:05:09;;;;;;;5.07;3.33;;;;;;;;;;5055468;28;20017;-46
2022/01/11 05:07:35;;;;;;;4.90;2.75;;;;;;;;;;5064781;28;20032;-46
2022/01/11 05:10:01;;;;;;;6.72;2.95;;;;;;;;;;5062872;28;20037;-46
2022/01/11 05:12:27;;;;;;;4.32;3.05;;;;;;;;;;5057550;28;20020;-46
2022/01/11 05:14:53;;;;;;;4.28;2.90;;;;;;;;;;5068654;28;20082;-46
2022/01/11 05:17:19;;;;;;;4.53;3.42;;;;;;;;;;5038692;28;20020;-46
2022/01/11 05:19:45;;;;;;;3.72;2.67;;;;;;;;;;5063951;28;20104;-46
2022/01/11 05:22:11;;;;;;;5.10;3.40;;;;;;;;;;5063985;28;20513;-46
2022/01/11 05:24:37;;;;;;;3.88;3.00;;;;;;;;;;5056534;28;20052;-46
2022/01/11 05:27:03;;;;;;;3.65;2.90;;;;;;;;;;5068739;28;20028;-46
2022/01/11 05:29:31;;;;;;;4.28;3.35;;;;;;;;;;5057754;28;20025;-46
2022/01/11 05:31:58;;;;;;;7.55;3.60;;;;;;;;;;5061992;28;20024;-46
2022/01/11 05:34:25;;;;;;;3.67;2.70;;;;;;;;;;5064926;28;20075;-46
2022/01/11 05:36:51;;;;;;;4.60;3.30;;;;;;;;;;5055171;28;20174;-46
2022/01/11 05:39:17;;;;;;;4.68;2.90;;;;;;;;;;5067095;28;20498;-45
2022/01/11 05:41:43;;;;;;;4.60;3.20;;;;;;;;;;5059764;28;20031;-47
2022/01/11 05:44:09;;;;;;;4.72;2.78;;;;;;;;;;5060116;28;20033;-45
2022/01/11 05:46:35;;;;;;;3.83;2.95;;;;;;;;;;5066152;28;20028;-45
2022/01/11 05:49:01;;;;;;;4.10;2.80;;;;;;;;;;5055080;28;20060;-45
2022/01/11 05:51:27;;;;;;;3.97;2.80;;;;;;;;;;5065625;28;20033;-46
2022/01/11 05:53:53;;;;;;;4.25;3.08;;;;;;;;;;5061060;28;20572;-46
2022/01/11 05:56:20;;;;;;;5.45;2.92;;;;;;;;;;5058266;28;20035;-46
2022/01/11 05:58:46;;;;;;;4.00;2.60;;;;;;;;;;5067861;28;20032;-45
2022/01/11 06:01:12;;;;;;;4.68;2.63;;;;;;;;;;5055440;28;20031;-46
2022/01/11 06:03:39;;;;;;;4.07;2.70;;;;;;;;;;5066005;28;20025;-45
2022/01/11 06:06:05;;;;;;;5.55;3.22;;;;;;;;;;5061222;28;20025;-52
2022/01/11 06:08:31;;;;;;;3.80;2.95;;;;;;;;;;5048695;28;20033;-46
2022/01/11 06:10:57;;;;;;;5.95;2.88;;;;;;;;;;5054694;28;20029;-45
2022/01/11 06:13:23;;;;;;;4.53;3.13;;;;;;;;;;5065498;28;20021;-46
2022/01/11 06:15:49;;;;;;;4.40;2.78;;;;;;;;;;5060224;28;20031;-46
2022/01/11 06:18:15;;;;;;;4.30;3.50;;;;;;;;;;5061475;28;20029;-46
2022/01/11 06:20:41;;;;;;;4.40;2.90;;;;;;;;;;5070786;28;20044;-45
2022/01/11 06:23:07;;;;;;;3.90;2.60;;;;;;;;;;5055939;28;20033;-45
2022/01/11 06:25:34;;;;;;;4.30;2.83;;;;;;;;;;5060706;28;20270;-46
2022/01/11 06:28:00;;;;;;;4.82;2.88;;;;;;;;;;5064332;28;20032;-46
2022/01/11 06:30:26;;;;;;;4.57;2.80;;;;;;;;;;5067908;28;20111;-45
2022/01/11 06:32:54;;;;;;;6.28;3.33;;;;;;;;;;5058093;28;20044;-45
2022/01/11 06:35:20;;;;;;;5.13;2.85;;;;;;;;;;5069395;28;20071;-47
2022/01/11 06:37:46;;;;;;;4.43;2.90;;;;;;;;;;5063520;28;20106;-45
2022/01/11 06:40:14;;;;;;;3.53;2.53;;;;;;;;;;5062803;28;20040;-46
2022/01/11 06:42:40;;;;;;;4.45;2.75;;;;;;;;;;5070366;28;20494;-45
2022/01/11 06:45:07;;;;;;;5.88;3.33;;;;;;;;;;5058311;28;20060;-45
2022/01/11 06:47:33;;;;;;;4.55;3.20;;;;;;;;;;5067880;28;20029;-46
2022/01/11 06:49:59;;;;;;;4.85;2.42;;;;;;;;;;5064940;28;20028;-46
2022/01/11 06:52:25;;;;;;;5.03;2.90;;;;;;;;;;5060657;28;20025;-45
2022/01/11 06:54:51;;;;;;;4.95;2.88;;;;;;;;;;5071140;28;20028;-46
2022/01/11 06:57:17;;;;;;;4.20;2.53;;;;;;;;;;5058755;28;20373;-46
2022/01/11 06:59:43;;;;;;;5.90;2.83;;;;;;;;;;5066043;28;20070;-44
2022/01/11 07:02:09;;;;;;;5.53;2.90;;;;;;;;;;5065998;28;20035;-45
2022/01/11 07:04:37;;;;;;;9.02;3.05;;;;;;;;;;5058515;28;20528;-44
2022/01/11 07:07:04;;;;;;;6.40;2.60;;;;;;;;;;5071140;28;20111;-45
2022/01/11 07:09:30;;;;;;;7.95;3.00;;;;;;;;;;5063963;28;20078;-45
2022/01/11 07:11:56;;;;;;;4.85;2.90;;;;;;;;;;5084298;28;20028;-45
2022/01/11 07:14:22;;;;;;;4.05;2.85;;;;;;;;;;5060307;28;20531;-46
2022/01/11 07:16:48;;;;;;;5.15;2.50;;;;;;;;;;5070584;28;20331;-45
2022/01/11 07:19:21;;;;;;;8.88;2.70;;;;;;;;;;5053639;28;20052;-45
2022/01/11 07:21:47;;;;;;;7.30;3.72;;;;;;;;;;5053457;28;20092;-45
2022/01/11 07:24:17;;;;;;;5.90;3.10;;;;;;;;;;5060326;28;20085;-46
2022/01/11 07:26:44;;;;;;;5.25;2.78;;;;;;;;;;5073534;28;20039;-46
2022/01/11 07:29:11;;;;;;;5.20;2.75;;;;;;;;;;5072979;28;20077;-45
2022/01/11 07:31:38;;;;;;;5.07;3.13;;;;;;;;;;5073690;28;20025;-45
2022/01/11 07:34:05;;;;;;;6.55;3.55;;;;;;;;;;5073727;28;20036;-45
2022/01/11 07:36:31;;;;;;;5.80;3.10;;;;;;;;;;5073609;28;20028;-45
2022/01/11 07:38:57;;;;;;;6.32;2.95;;;;;;;;;;5070931;28;20063;-46
2022/01/11 07:41:23;;;;;;;6.80;3.30;;;;;;;;;;5073330;28;20077;-46
2022/01/11 07:43:49;;;;;;;4.70;2.95;;;;;;;;;;5073918;28;20020;-44
2022/01/11 07:46:15;;;;;;;4.82;2.75;;;;;;;;;;5073510;28;20021;-46
2022/01/11 07:48:41;;;;;;;4.90;3.20;;;;;;;;;;5073473;28;20029;-46
2022/01/11 07:51:08;;;;;;;4.25;3.15;;;;;;;;;;5073842;28;20039;-46
2022/01/11 07:53:34;;;;;;;5.45;3.00;;;;;;;;;;5073301;28;20032;-45
2022/01/11 07:56:00;;;;;;;5.00;2.88;;;;;;;;;;5055846;28;20408;-46
2022/01/11 07:58:26;;;;;;;7.93;3.30;;;;;;;;;;5073235;28;20121;-45
2022/01/11 08:00:52;;;;;;;8.35;3.60;;;;;;;;;;5073300;28;20104;-46
2022/01/11 08:03:18;;;;;;;5.43;2.95;;;;;;;;;;5073026;28;20059;-48
2022/01/11 08:05:44;;;;;;;6.57;2.90;;;;;;;;;;5073428;28;20067;-50
2022/01/11 08:08:11;;;;;;;5.03;3.00;;;;;;;;;;5073836;28;20029;-48
2022/01/11 08:10:37;;;;;;;4.90;3.70;;;;;;;;;;5071998;28;20024;-48
2022/01/11 08:13:06;;;;;;;4.47;3.05;;;;;;;;;;5073334;28;20059;-49
2022/01/11 08:15:33;;;;;;;5.72;3.33;;;;;;;;;;5072800;28;20112;-45
2022/01/11 08:17:59;;;;;;;8.40;3.22;;;;;;;;;;5073318;28;20031;-46
2022/01/11 08:20:25;;;;;;;4.95;3.05;;;;;;;;;;5055075;28;20107;-47
2022/01/11 08:22:53;;;;;;;5.45;3.67;;;;;;;;;;5073237;28;20047;-50
2022/01/11 08:25:20;;;;;;;6.85;3.53;;;;;;;;;;5052563;28;20025;-49
2022/01/11 08:27:46;;;;;;;4.60;3.00;;;;;;;;;;5052838;28;20029;-48
2022/01/11 08:30:12;;;;;;;6.30;3.58;;;;;;;;;;5052818;28;20029;-46
2022/01/11 08:32:38;;;;;;;5.07;3.88;;;;;;;;;;5052049;28;20028;-46
2022/01/11 08:35:05;;;;;;;5.13;3.22;;;;;;;;;;5052495;28;20112;-50
2022/01/11 08:37:31;;;;;;;5.20;3.53;;;;;;;;;;5051350;28;20053;-46
2022/01/11 08:39:57;;;;;;;6.07;3.28;;;;;;;;;;5050767;28;20033;-47
2022/01/11 08:42:23;;;;;;;4.95;3.55;;;;;;;;;;5051298;28;20021;-46
2022/01/11 08:44:52;;;;;;;4.10;2.70;;;;;;;;;;5052556;28;20028;-47
2022/01/11 08:47:18;;;;;;;4.90;3.45;;;;;;;;;;5057348;28;20025;-46
2022/01/11 08:49:45;;;;;;;3.92;2.95;;;;;;;;;;5062517;28;20033;-49
2022/01/11 08:52:11;;;;;;;6.72;3.78;;;;;;;;;;5061543;28;20052;-46
2022/01/11 08:54:37;;;;;;;5.13;3.53;;;;;;;;;;5045035;28;20454;-50
2022/01/11 08:57:04;;;;;;;4.75;2.85;;;;;;;;;;5060869;28;20043;-46
2022/01/11 08:59:30;;;;;;;5.05;3.53;;;;;;;;;;5060146;28;20055;-45
2022/01/11 09:01:57;;;;;;;5.65;3.22;;;;;;;;;;5061191;28;20029;-45
2022/01/11 09:04:24;;;;;;;5.40;3.33;;;;;;;;;;5062344;28;20108;-50
2022/01/11 09:06:50;;;;;;;5.93;3.45;;;;;;;;;;5063463;28;20029;-45
2022/01/11 09:09:18;;;;;;;4.93;3.28;;;;;;;;;;5059461;28;20110;-45
2022/01/11 09:11:45;;;;;;;4.75;3.10;;;;;;;;;;5062046;28;20060;-50
2022/01/11 09:14:11;;;;;;;6.97;3.70;;;;;;;;;;5062893;28;20025;-46
2022/01/11 09:16:37;;;;;;;4.75;2.88;;;;;;;;;;5060739;28;20017;-48
2022/01/11 09:19:03;;;;;;;5.78;3.15;;;;;;;;;;5071946;28;20040;-46
2022/01/11 09:21:31;;;;;;;5.25;3.47;;;;;;;;;;5070966;28;20028;-46
2022/01/11 09:23:57;;;;;;;3.97;3.38;;;;;;;;;;5062372;28;20032;-50
2022/01/11 09:26:23;;;;;;;3.80;2.67;;;;;;;;;;5049671;28;20563;-51
2022/01/11 09:28:49;;;;;;;4.95;3.05;;;;;;;;;;5050773;28;20112;-46
2022/01/11 09:31:15;;;;;;;4.63;3.35;;;;;;;;;;5051227;28;20109;-45
2022/01/11 09:33:41;;;;;;;5.93;3.30;;;;;;;;;;5050553;28;20029;-47
2022/01/11 09:36:07;;;;;;;6.13;3.88;;;;;;;;;;5051395;28;20033;-47
2022/01/11 09:38:33;;;;;;;3.78;2.70;;;;;;;;;;5061362;28;20151;-48
2022/01/11 09:40:59;;;;;;;3.95;3.10;;;;;;;;;;5070621;28;20107;-46
2022/01/11 09:43:26;;;;;;;5.47;2.97;;;;;;;;;;5070702;28;20423;-47
2022/01/11 09:45:53;;;;;;;5.25;2.97;;;;;;;;;;5071482;28;20024;-46
2022/01/11 09:48:23;;;;;;;3.95;3.10;;;;;;;;;;5071154;28;20031;-45
2022/01/11 09:50:49;;;;;;;4.60;3.03;;;;;;;;;;5071159;28;20111;-46
2022/01/11 09:53:15;;;;;;;4.47;2.95;;;;;;;;;;5076889;28;20096;-46
2022/01/11 09:55:43;;;;;;;4.53;2.78;;;;;;;;;;5077349;28;20193;-46
2022/01/11 09:58:10;;;;;;;4.30;3.00;;;;;;;;;;5077867;28;20029;-47
2022/01/11 10:00:36;;;;;;;2.92;2.55;;;;;;;;;;5077713;28;20077;-45
2022/01/11 10:03:03;;;;;;;5.63;3.42;;;;;;;;;;5078473;28;20469;-46
2022/01/11 10:05:29;;;;;;;4.63;3.10;;;;;;;;;;5077740;28;20024;-49
2022/01/11 10:07:55;;;;;;;4.68;3.08;;;;;;;;;;5078437;28;20078;-46
2022/01/11 10:10:23;;;;;;;3.65;3.00;;;;;;;;;;5091090;28;20058;-46
2022/01/11 10:12:50;;;;;;;5.22;2.83;;;;;;;;;;5098663;28;20086;-47
2022/01/11 10:15:25;;;;;;;4.07;3.05;;;;;;;;;;5098683;28;20024;-50
2022/01/11 10:17:51;;;;;;;4.93;3.55;;;;;;;;;;5098651;28;20034;-46
2022/01/11 10:20:23;;;;;;;4.15;2.75;;;;;;;;;;5099003;28;20028;-45
2022/01/11 10:22:54;;;;;;;6.65;2.97;;;;;;;;;;5097004;28;20024;-45
2022/01/11 10:25:20;;;;;;;6.80;3.20;;;;;;;;;;5078379;28;20422;-45
2022/01/11 10:27:57;;;;;;;3.35;2.80;;;;;;;;;;5077661;28;20028;-45
2022/01/11 10:30:23;;;;;;;6.25;2.70;;;;;;;;;;5078167;28;20549;-47
2022/01/11 10:32:50;;;;;;;4.07;3.08;;;;;;;;;;5077485;28;20060;-47
2022/01/11 10:35:18;;;;;;;5.57;3.88;;;;;;;;;;5078225;28;20025;-46
2022/01/11 10:37:46;;;;;;;4.72;2.95;;;;;;;;;;5068073;28;20072;-45
2022/01/11 10:40:15;;;;;;;4.13;3.15;;;;;;;;;;5070426;28;20095;-49
2022/01/11 10:42:45;;;;;;;4.15;2.85;;;;;;;;;;5077001;28;20027;-47
2022/01/11 10:45:21;;;;;;;4.05;3.33;;;;;;;;;;5078010;28;20043;-45
2022/01/11 10:47:49;;;;;;;4.18;3.05;;;;;;;;;;5077452;28;20189;-49
2022/01/11 10:50:42;;;;;;;5.10;3.47;;;;;;;;;;5077963;28;20029;-46
2022/01/11 10:53:12;;;;;;;3.28;2.90;;;;;;;;;;5074811;28;20033;-47
2022/01/11 10:55:38;;;;;;;5.28;2.70;;;;;;;;;;5077362;28;20024;-45
2022/01/11 10:58:08;;;;;;;4.28;3.10;;;;;;;;;;5078210;28;20044;-46
2022/01/11 11:00:35;;;;;;;3.85;2.75;;;;;;;;;;5077016;28;20420;-46
2022/01/11 11:03:13;;;;;;;4.90;3.17;;;;;;;;;;5076936;28;20029;-46
2022/01/11 11:05:48;;;;;;;4.15;3.22;;;;;;;;;;5073827;28;20024;-46
2022/01/11 11:08:15;;;;;;;4.70;3.00;;;;;;;;;;5074378;28;20431;-47
2022/01/11 11:11:00;;;;;;;4.65;3.30;;;;;;;;;;5056374;28;20108;-47
2022/01/11 11:13:28;;;;;;;4.93;3.13;;;;;;;;;;5054178;28;20024;-47
2022/01/11 11:15:55;;;;;;;3.60;2.72;;;;;;;;;;5053733;28;20025;-46
2022/01/11 11:18:23;;;;;;;3.95;3.15;;;;;;;;;;5054683;28;20029;-47
2022/01/11 11:20:49;;;;;;;4.18;2.83;;;;;;;;;;5053782;28;20028;-47
2022/01/11 11:23:17;;;;;;;4.45;2.90;;;;;;;;;;5057956;28;20021;-46
2022/01/11 11:25:43;;;;;;;3.97;2.75;;;;;;;;;;5074255;28;20092;-49
2022/01/11 11:28:09;;;;;;;3.92;2.72;;;;;;;;;;5074357;28;20039;-50
2022/01/11 11:30:35;;;;;;;3.50;2.90;;;;;;;;;;5073920;28;20036;-48
2022/01/11 11:33:01;;;;;;;4.47;2.85;;;;;;;;;;5074344;28;20035;-47
2022/01/11 11:35:28;;;;;;;4.88;2.90;;;;;;;;;;5074080;28;20028;-48
2022/01/11 11:37:57;;;;;;;3.90;3.00;;;;;;;;;;5073371;28;20460;-45
2022/01/11 11:40:24;;;;;;;4.05;3.10;;;;;;;;;;5073212;28;20060;-45
2022/01/11 11:42:59;;;;;;;3.78;2.80;;;;;;;;;;5073519;28;20115;-47
2022/01/11 11:45:27;;;;;;;3.20;2.65;;;;;;;;;;5074184;28;20055;-47
2022/01/11 11:48:02;;;;;;;4.90;3.08;;;;;;;;;;5073310;28;20059;-47
2022/01/11 11:50:28;;;;;;;4.53;2.97;;;;;;;;;;5073869;28;20025;-46
2022/01/11 11:52:55;;;;;;;5.00;3.10;;;;;;;;;;5073229;28;20031;-45
2022/01/11 11:55:28;;;;;;;3.63;2.63;;;;;;;;;;5073860;28;20025;-45
2022/01/11 11:58:09;;;;;;;2.95;2.67;;;;;;;;;;5073182;28;20074;-46
2022/01/11 12:00:46;;;;;;;4.75;3.13;;;;;;;;;;5073186;28;20025;-46
2022/01/11 12:03:19;;;;;;;3.63;2.72;;;;;;;;;;5072772;28;20115;-48
2022/01/11 12:05:47;;;;;;;4.53;2.72;;;;;;;;;;5072440;28;20466;-48
2022/01/11 12:08:33;;;;;;;4.00;2.78;;;;;;;;;;5073511;28;20043;-46
2022/01/11 12:11:02;;;;;;;4.05;2.80;;;;;;;;;;5072011;28;20033;-45
2022/01/11 12:13:42;;;;;;;6.40;3.17;;;;;;;;;;5073457;28;20021;-48
2022/01/11 12:16:26;;;;;;;4.50;2.63;;;;;;;;;;5073129;28;20415;-47
2022/01/11 12:18:53;;;;;;;2.78;2.58;;;;;;;;;;5072567;28;20020;-45
2022/01/11 12:21:20;;;;;;;3.35;2.40;;;;;;;;;;5072846;28;20112;-49
2022/01/11 12:23:49;;;;;;;5.80;2.80;;;;;;;;;;5064697;28;20037;-45
2022/01/11 12:26:19;;;;;;;4.30;2.55;;;;;;;;;;5052950;28;20021;-46
2022/01/11 12:28:45;;;;;;;5.40;2.92;;;;;;;;;;5052519;28;20083;-45
2022/01/11 12:31:27;;;;;;;3.17;2.50;;;;;;;;;;5052867;28;20478;-46
2022/01/11 12:33:53;;;;;;;;;;;;;;;;;;5052871;28;20037;-45
2022/01/11 12:36:19;;;;;;;3.90;2.05;;;;;;;;;;5052807;28;19912;-46
2022/01/11 12:39:01;;;;;;;2.28;1.95;;;;;;;;;;5051953;28;20080;-50
2022/01/11 12:41:32;;;;;;;3.83;2.78;;;;;;;;;;5072442;28;20024;-45
2022/01/11 12:44:20;;;;;;;4.22;2.78;;;;;;;;;;5071558;28;20525;-46
2022/01/11 12:46:50;;;;;;;3.33;2.50;;;;;;;;;;5071822;28;20036;-45
2022/01/11 12:49:16;;;;;;;2.75;2.10;;;;;;;;;;5072504;28;20024;-45
2022/01/11 12:51:52;;;;;;;4.30;2.42;;;;;;;;;;5071789;28;20028;-46
2022/01/11 12:54:20;;;;;;;3.00;2.60;;;;;;;;;;5072764;28;20151;-50
2022/01/11 12:56:48;;;;;;;2.70;1.85;;;;;;;;;;5071600;28;20378;-46
2022/01/11 12:59:15;;;;;;;2.92;2.22;;;;;;;;;;5072519;28;20025;-45
2022/01/11 13:01:41;;;;;;;2.97;2.00;;;;;;;;;;5071882;28;20071;-46
2022/01/11 13:04:07;;;;;;;2.10;1.77;;;;;;;;;;5072155;28;20465;-46
2022/01/11 13:06:34;;;;;;;2.90;2.05;;;;;;;;;;5072257;28;20071;-47
2022/01/11 13:09:03;;;;;;;3.92;2.10;;;;;;;;;;5070226;28;20044;-45
2022/01/11 13:11:29;;;;;;;2.40;2.00;;;;;;;;;;5072154;28;20052;-46
2022/01/11 13:14:19;;;;;;;3.03;2.05;;;;;;;;;;5071421;28;20044;-45
2022/01/11 13:16:46;;;;;;;1.85;1.50;;;;;;;;;;5071506;28;20476;-46
2022/01/11 13:19:13;;;;;;;3.13;1.80;;;;;;;;;;5072407;28;20028;-46
2022/01/11 13:21:39;;;;;;;3.10;2.00;;;;;;;;;;5071607;28;20039;-47
2022/01/11 13:26:51;;;;;;;2.38;1.80;;;;;;;;;;5050715;28;20036;-45
2022/01/11 13:29:20;;;;;;;2.50;1.67;;;;;;;;;;5051999;28;20025;-50
2022/01/11 13:31:52;;;;;;;2.47;1.70;;;;;;;;;;5051318;28;20059;-48
2022/01/11 13:34:21;;;;;;;2.47;1.77;;;;;;;;;;5052196;28;20025;-46
2022/01/11 13:36:48;;;;;;;4.28;2.10;;;;;;;;;;5065114;28;20082;-46
2022/01/11 13:39:15;;;;;;;2.13;1.60;;;;;;;;;;5066825;28;20024;-46
2022/01/11 13:41:43;;;;;;;2.80;1.60;;;;;;;;;;5050774;28;20028;-52
2022/01/11 13:44:10;;;;;;;2.80;1.85;;;;;;;;;;5051835;28;20433;-47
2022/01/11 13:46:39;;;;;;;2.30;1.90;;;;;;;;;;5051223;28;20021;-47
2022/01/11 13:49:07;;;;;;;2.20;1.63;;;;;;;;;;5051176;28;20465;-48
2022/01/11 13:51:33;;;;;;;2.15;1.67;;;;;;;;;;5051348;28;20256;-48
2022/01/11 13:54:00;;;;;;;2.78;1.75;;;;;;;;;;5050032;28;20021;-46
2022/01/11 13:56:30;;;;;;;2.25;1.77;;;;;;;;;;5051272;28;20022;-49
2022/01/11 13:58:56;;;;;;;2.55;1.63;;;;;;;;;;5049628;28;20458;-46
2022/01/11 14:01:25;;;;;;;2.38;1.40;;;;;;;;;;5051137;28;20053;-45
2022/01/11 14:03:52;;;;;;;2.03;1.40;;;;;;;;;;5050313;28;20025;-46
2022/01/11 14:06:17;;;;;;;3.08;2.00;;;;;;;;;;5051113;28;20159;-45
2022/01/11 14:08:50;;;;;;;2.42;1.52;;;;;;;;;;5050130;28;20124;-53
2022/01/11 14:11:26;;;;;;;2.63;1.60;;;;;;;;;;5060577;28;20033;-45
2022/01/11 14:13:56;;;;;;;2.70;2.22;;;;;;;;;;5070384;28;20025;-45
2022/01/11 14:16:22;;;;;;;1.52;1.42;;;;;;;;;;5071206;28;20033;-45
2022/01/11 14:19:02;;;;;;;3.42;2.00;;;;;;;;;;5070291;28;20040;-47
2022/01/11 14:21:28;;;;;;;4.30;1.90;;;;;;;;;;5071075;28;20025;-45
2022/01/11 14:23:54;;;;;;;4.95;2.10;;;;;;;;;;5067765;28;20027;-45
2022/01/11 14:26:32;;;;;;;3.33;1.85;;;;;;;;;;5091241;28;20024;-45
2022/01/11 14:28:58;;;;;;;2.63;1.42;;;;;;;;;;5090559;28;20056;-45
2022/01/11 14:31:27;;;;;;;1.40;1.30;;;;;;;;;;5091286;28;20113;-46
2022/01/11 14:33:53;;;;;;;2.25;1.70;;;;;;;;;;5090782;28;20063;-45
2022/01/11 14:36:21;;;;;;;2.67;1.40;;;;;;;;;;5091201;28;20028;-45
2022/01/11 14:38:49;;;;;;;2.75;1.38;;;;;;;;;;5089184;28;20146;-45
2022/01/11 14:41:26;;;;;;;4.20;2.08;;;;;;;;;;5074701;28;20020;-45
2022/01/11 14:43:57;;;;;;;2.13;1.20;;;;;;;;;;5074681;28;20051;-45
2022/01/11 14:46:23;;;;;;;2.95;1.63;;;;;;;;;;5057242;28;20020;-45
2022/01/11 14:48:49;;;;;;;2.75;1.70;;;;;;;;;;5074060;28;20494;-49
2022/01/11 14:51:16;;;;;;;2.25;1.55;;;;;;;;;;5073069;28;20030;-47
2022/01/11 14:53:44;;;;;;;2.75;1.58;;;;;;;;;;5056062;28;20039;-51